createdAt,value
2018-09-26T00:00:19.009Z,1.20
2018-09-26T00:02:49.763Z,1.20
2018-09-26T00:05:18.762Z,1.30
2018-09-26T00:07:46.957Z,1.50
2018-09-26T00:10:15.216Z,1.22
2018-09-26T00:12:43.328Z,1.00
2018-09-26T00:15:11.606Z,1.45
2018-09-26T00:17:39.801Z,1.40
2018-09-26T00:20:08.085Z,1.27
2018-09-26T00:22:36.482Z,1.47
2018-09-26T00:25:04.662Z,1.32
2018-09-26T00:27:32.851Z,1.40
2018-09-26T00:30:01.026Z,1.32
2018-09-26T00:32:29.342Z,1.50
2018-09-26T00:34:57.486Z,1.72
2018-09-26T00:37:25.697Z,1.60
2018-09-26T00:39:53.867Z,1.40
2018-09-26T00:42:22.045Z,1.40
2018-09-26T00:44:50.248Z,1.10
2018-09-26T00:47:18.437Z,1.50
2018-09-26T00:49:46.614Z,1.40
2018-09-26T00:52:14.794Z,1.27
2018-09-26T00:54:42.979Z,1.57
2018-09-26T00:57:11.059Z,1.60
2018-09-26T00:59:39.153Z,1.50
2018-09-26T01:02:07.334Z,1.22
2018-09-26T01:04:35.423Z,2.05
2018-09-26T01:07:03.602Z,1.47
2018-09-26T01:09:31.705Z,1.45
2018-09-26T01:11:59.887Z,1.50
2018-09-26T01:14:27.970Z,1.22
2018-09-26T01:16:56.155Z,1.80
2018-09-26T01:19:24.442Z,1.50
2018-09-26T01:21:52.635Z,1.35
2018-09-26T01:24:20.826Z,1.57
2018-09-26T01:26:49.010Z,1.65
2018-09-26T01:29:17.217Z,2.00
2018-09-26T01:31:45.407Z,1.62
2018-09-26T01:34:13.630Z,3.20
2018-09-26T01:36:41.779Z,5.75
2018-09-26T01:39:10.381Z,5.50
2018-09-26T01:41:39.591Z,4.22
2018-09-26T01:44:07.788Z,6.60
2018-09-26T01:46:35.986Z,5.72
2018-09-26T01:49:04.162Z,7.42
2018-09-26T01:51:32.337Z,6.45
2018-09-26T01:54:00.515Z,5.37
2018-09-26T01:56:28.724Z,2.65
2018-09-26T01:58:56.888Z,2.10
2018-09-26T02:01:26.005Z,2.20
2018-09-26T02:03:54.178Z,1.60
2018-09-26T02:06:22.373Z,2.00
2018-09-26T02:08:50.563Z,1.60
2018-09-26T02:11:19.684Z,1.70
2018-09-26T02:13:47.849Z,1.42
2018-09-26T02:16:16.062Z,1.90
2018-09-26T02:18:44.222Z,1.55
2018-09-26T02:21:12.441Z,1.92
2018-09-26T02:23:40.604Z,1.62
2018-09-26T02:26:08.794Z,1.50
2018-09-26T02:28:36.970Z,1.57
2018-09-26T02:31:05.278Z,1.55
2018-09-26T02:33:33.430Z,1.98
2018-09-26T02:36:01.643Z,1.57
2018-09-26T02:38:29.818Z,1.52
2018-09-26T02:40:58.030Z,1.67
2018-09-26T02:43:26.194Z,1.57
2018-09-26T02:45:54.378Z,1.50
2018-09-26T02:48:28.146Z,2.00
2018-09-26T02:50:56.302Z,1.80
2018-09-26T02:53:24.470Z,1.40
2018-09-26T02:55:52.732Z,1.80
2018-09-26T02:58:20.834Z,1.32
2018-09-26T03:00:49.037Z,1.85
2018-09-26T03:03:17.237Z,1.98
2018-09-26T03:05:45.410Z,1.57
2018-09-26T03:08:13.678Z,2.08
2018-09-26T03:10:41.912Z,1.60
2018-09-26T03:13:10.056Z,1.40
2018-09-26T03:15:38.258Z,1.62
2018-09-26T03:18:06.710Z,1.70
2018-09-26T03:20:34.837Z,1.50
2018-09-26T03:23:03.007Z,1.60
2018-09-26T03:25:31.205Z,1.80
2018-09-26T03:27:59.390Z,1.55
2018-09-26T03:30:27.570Z,1.57
2018-09-26T03:32:55.771Z,1.60
2018-09-26T03:35:23.954Z,1.67
2018-09-26T03:37:52.143Z,1.92
2018-09-26T03:40:20.325Z,1.77
2018-09-26T03:42:48.523Z,1.72
2018-09-26T03:45:16.711Z,1.70
2018-09-26T03:47:44.901Z,2.15
2018-09-26T03:50:13.065Z,1.80
2018-09-26T03:52:41.253Z,1.60
2018-09-26T03:55:09.454Z,2.15
2018-09-26T03:57:37.639Z,1.65
2018-09-26T04:00:05.841Z,1.98
2018-09-26T04:02:34.036Z,2.12
2018-09-26T04:05:02.339Z,2.08
2018-09-26T04:07:30.395Z,1.80
2018-09-26T04:09:58.557Z,2.45
2018-09-26T04:12:26.782Z,1.87
2018-09-26T04:14:54.978Z,2.02
2018-09-26T04:17:23.139Z,2.00
2018-09-26T04:19:51.318Z,2.47
2018-09-26T04:22:19.511Z,1.77
2018-09-26T04:24:47.682Z,2.10
2018-09-26T04:27:15.988Z,1.72
2018-09-26T04:29:44.104Z,1.98
2018-09-26T04:32:12.246Z,2.30
2018-09-26T04:34:40.447Z,2.25
2018-09-26T04:37:08.855Z,2.15
2018-09-26T04:39:37.026Z,2.50
2018-09-26T04:42:05.218Z,2.30
2018-09-26T04:44:33.406Z,2.27
2018-09-26T04:47:01.610Z,2.42
2018-09-26T04:49:29.775Z,2.40
2018-09-26T04:51:57.957Z,2.47
2018-09-26T04:54:26.150Z,2.45
2018-09-26T04:56:54.446Z,2.47
2018-09-26T04:59:22.613Z,1.90
2018-09-26T05:01:50.817Z,2.35
2018-09-26T05:04:18.990Z,2.50
2018-09-26T05:06:47.202Z,2.25
2018-09-26T05:09:15.417Z,2.17
2018-09-26T05:11:43.773Z,2.10
2018-09-26T05:14:11.946Z,2.17
2018-09-26T05:16:40.158Z,2.55
2018-09-26T05:19:08.318Z,2.10
2018-09-26T05:21:37.538Z,2.00
2018-09-26T05:24:05.730Z,1.85
2018-09-26T05:26:33.938Z,1.80
2018-09-26T05:29:02.093Z,2.25
2018-09-26T05:31:30.270Z,1.75
2018-09-26T05:33:58.484Z,1.87
2018-09-26T05:36:26.654Z,1.85
2018-09-26T05:38:54.845Z,2.45
2018-09-26T05:41:24.047Z,2.22
2018-09-26T05:43:52.242Z,2.30
2018-09-26T05:46:20.429Z,1.87
2018-09-26T05:48:48.622Z,2.42
2018-09-26T05:51:17.830Z,2.22
2018-09-26T05:53:46.015Z,2.20
2018-09-26T05:56:14.288Z,1.92
2018-09-26T05:58:42.406Z,1.98
2018-09-26T06:01:10.594Z,2.20
2018-09-26T06:03:38.760Z,2.17
2018-09-26T06:06:06.938Z,1.60
2018-09-26T06:08:35.158Z,2.08
2018-09-26T06:11:03.330Z,2.40
2018-09-26T06:13:31.510Z,2.30
2018-09-26T06:15:59.693Z,1.52
2018-09-26T06:18:27.882Z,2.05
2018-09-26T06:20:56.078Z,2.10
2018-09-26T06:23:24.272Z,2.10
2018-09-26T06:25:52.445Z,1.98
2018-09-26T06:28:20.644Z,2.00
2018-09-26T06:30:48.955Z,1.92
2018-09-26T06:33:17.121Z,2.90
2018-09-26T06:35:45.279Z,1.85
2018-09-26T06:38:13.470Z,1.52
2018-09-26T06:40:41.650Z,1.85
2018-09-26T06:43:10.269Z,1.82
2018-09-26T06:45:38.425Z,1.85
2018-09-26T06:48:06.641Z,2.05
2018-09-26T06:50:34.814Z,1.77
2018-09-26T06:53:03.001Z,2.08
2018-09-26T06:55:31.186Z,1.77
2018-09-26T06:57:59.590Z,1.67
2018-09-26T07:00:27.792Z,2.40
2018-09-26T07:02:55.953Z,1.95
2018-09-26T07:05:24.134Z,2.27
2018-09-26T07:07:52.325Z,1.98
2018-09-26T07:10:20.519Z,1.72
2018-09-26T07:12:48.697Z,2.08
2018-09-26T07:15:16.885Z,1.67
2018-09-26T07:17:45.071Z,1.72
2018-09-26T07:20:13.262Z,1.67
2018-09-26T07:22:41.574Z,1.85
2018-09-26T07:25:09.740Z,1.80
2018-09-26T07:27:37.937Z,1.85
2018-09-26T07:30:06.181Z,1.60
2018-09-26T07:32:34.429Z,1.82
2018-09-26T07:35:02.636Z,2.00
2018-09-26T07:37:30.790Z,1.72
2018-09-26T07:39:59.134Z,2.00
2018-09-26T07:42:27.258Z,1.50
2018-09-26T07:44:55.462Z,1.60
2018-09-26T07:47:23.571Z,1.70
2018-09-26T07:49:51.717Z,1.07
2018-09-26T07:52:19.922Z,1.22
2018-09-26T07:54:48.097Z,1.60
2018-09-26T07:57:16.332Z,1.70
2018-09-26T07:59:44.422Z,1.27
2018-09-26T08:02:12.570Z,1.62
2018-09-26T08:04:40.750Z,1.60
2018-09-26T08:07:08.945Z,1.72
2018-09-26T08:09:37.133Z,1.60
2018-09-26T08:12:05.241Z,1.32
2018-09-26T08:14:33.416Z,1.25
2018-09-26T08:17:01.688Z,1.35
2018-09-26T08:19:29.910Z,1.35
2018-09-26T08:21:58.058Z,1.40
2018-09-26T08:24:26.230Z,1.20
2018-09-26T08:26:54.430Z,1.15
2018-09-26T08:29:22.605Z,1.22
2018-09-26T08:31:50.736Z,1.42
2018-09-26T08:34:18.868Z,1.10
2018-09-26T08:36:47.082Z,1.32
2018-09-26T08:39:15.334Z,1.87
2018-09-26T08:41:43.436Z,1.20
2018-09-26T08:44:11.747Z,1.10
2018-09-26T08:46:40.143Z,1.22
2018-09-26T08:49:08.338Z,1.25
2018-09-26T08:51:36.574Z,1.52
2018-09-26T08:54:04.670Z,1.10
2018-09-26T08:56:32.879Z,1.65
2018-09-26T08:59:01.019Z,1.20
2018-09-26T09:01:34.622Z,1.50
2018-09-26T09:04:02.741Z,1.00
2018-09-26T09:06:30.930Z,1.15
2018-09-26T09:08:59.114Z,1.00
2018-09-26T09:11:27.219Z,0.80
2018-09-26T09:13:55.498Z,1.15
2018-09-26T09:16:23.678Z,1.20
2018-09-26T09:18:51.781Z,0.90
2018-09-26T09:21:19.955Z,1.42
2018-09-26T09:23:48.155Z,1.72
2018-09-26T09:26:16.383Z,1.00
2018-09-26T09:28:44.523Z,0.75
2018-09-26T09:31:13.230Z,1.10
2018-09-26T09:33:41.418Z,0.82
2018-09-26T09:36:09.586Z,1.15
2018-09-26T09:38:37.861Z,1.10
2018-09-26T09:41:06.500Z,1.07
2018-09-26T09:43:34.644Z,0.82
2018-09-26T09:46:03.062Z,1.05
2018-09-26T09:48:31.172Z,0.90
2018-09-26T09:50:59.285Z,0.88
2018-09-26T09:53:27.407Z,1.10
2018-09-26T09:55:55.610Z,1.20
2018-09-26T09:58:23.795Z,1.10
2018-09-26T10:00:57.302Z,1.30
2018-09-26T10:03:25.537Z,1.07
2018-09-26T10:05:53.884Z,1.17
2018-09-26T10:08:22.411Z,1.17
2018-09-26T10:10:50.630Z,0.65
2018-09-26T10:13:18.856Z,0.93
2018-09-26T10:15:47.094Z,1.00
2018-09-26T10:18:15.233Z,0.98
2018-09-26T10:20:43.414Z,0.82
2018-09-26T10:23:11.607Z,1.00
2018-09-26T10:25:39.790Z,1.15
2018-09-26T10:28:07.985Z,2.95
2018-09-26T10:30:36.154Z,1.42
2018-09-26T10:33:04.354Z,1.50
2018-09-26T10:35:32.538Z,0.90
2018-09-26T10:38:00.741Z,1.30
2018-09-26T10:40:28.902Z,1.15
2018-09-26T10:42:57.167Z,1.62
2018-09-26T10:45:25.385Z,1.42
2018-09-26T10:47:53.578Z,1.40
2018-09-26T10:50:21.872Z,1.42
2018-09-26T10:52:49.947Z,3.05
2018-09-26T10:55:18.122Z,0.93
2018-09-26T10:57:46.334Z,1.22
2018-09-26T11:00:14.530Z,1.25
2018-09-26T11:02:42.699Z,0.85
2018-09-26T11:05:10.878Z,1.00
2018-09-26T11:07:39.070Z,0.95
2018-09-26T11:10:07.233Z,0.90
2018-09-26T11:12:35.379Z,1.10
2018-09-26T11:15:03.536Z,0.90
2018-09-26T11:17:31.722Z,1.07
2018-09-26T11:19:59.872Z,0.90
2018-09-26T11:22:28.083Z,1.00
2018-09-26T11:24:56.283Z,0.90
2018-09-26T11:27:24.468Z,1.12
2018-09-26T11:29:52.657Z,0.98
2018-09-26T11:32:20.893Z,0.95
2018-09-26T11:34:49.038Z,0.82
2018-09-26T11:37:17.223Z,1.10
2018-09-26T11:39:45.401Z,1.20
2018-09-26T11:42:13.577Z,0.95
2018-09-26T11:44:41.828Z,1.02
2018-09-26T11:47:09.953Z,1.10
2018-09-26T11:49:38.146Z,1.05
2018-09-26T11:52:06.340Z,1.00
2018-09-26T11:54:35.425Z,1.12
2018-09-26T11:57:03.531Z,1.00
2018-09-26T11:59:31.710Z,1.00
2018-09-26T12:01:59.943Z,1.10
2018-09-26T12:04:28.082Z,0.90
2018-09-26T12:06:56.291Z,1.10
2018-09-26T12:09:24.458Z,1.15
2018-09-26T12:11:53.166Z,1.20
2018-09-26T12:14:21.311Z,1.15
2018-09-26T12:16:49.530Z,0.98
2018-09-26T12:19:17.769Z,0.95
2018-09-26T12:21:45.920Z,1.12
2018-09-26T12:24:14.179Z,1.20
2018-09-26T12:26:42.382Z,1.17
2018-09-26T12:29:10.545Z,1.00
2018-09-26T12:31:38.658Z,0.75
2018-09-26T12:34:07.104Z,1.15
2018-09-26T12:36:35.222Z,1.42
2018-09-26T12:39:04.365Z,1.20
2018-09-26T12:41:32.518Z,0.80
2018-09-26T12:44:00.714Z,1.35
2018-09-26T12:46:28.967Z,1.02
2018-09-26T12:48:57.086Z,0.85
2018-09-26T12:51:25.222Z,1.05
2018-09-26T12:53:53.403Z,0.90
2018-09-26T12:56:21.464Z,0.98
2018-09-26T12:58:49.582Z,1.30
2018-09-26T13:01:17.745Z,1.47
2018-09-26T13:03:45.871Z,1.05
2018-09-26T13:06:14.131Z,1.20
2018-09-26T13:08:42.339Z,0.95
2018-09-26T13:11:10.559Z,1.80
2018-09-26T13:13:38.770Z,1.50
2018-09-26T13:18:34.747Z,1.10
2018-09-26T13:21:02.902Z,1.35
2018-09-26T13:23:31.201Z,0.93
2018-09-26T13:25:59.366Z,1.20
2018-09-26T13:28:27.590Z,1.22
2018-09-26T13:30:55.697Z,0.95
2018-09-26T13:33:23.955Z,1.22
2018-09-26T13:35:52.070Z,1.10
2018-09-26T13:38:20.309Z,1.00
2018-09-26T13:40:48.418Z,0.70
2018-09-26T13:43:16.574Z,1.10
2018-09-26T13:45:44.878Z,1.05
2018-09-26T13:48:13.093Z,0.80
2018-09-26T13:50:41.233Z,0.98
2018-09-26T13:53:09.411Z,0.90
2018-09-26T13:55:37.583Z,0.90
2018-09-26T13:58:06.748Z,0.90
2018-09-26T14:00:34.966Z,0.90
2018-09-26T14:03:03.074Z,1.00
2018-09-26T14:05:31.274Z,0.80
2018-09-26T14:07:59.467Z,0.90
2018-09-26T14:10:27.701Z,1.55
2018-09-26T14:12:55.841Z,1.72
2018-09-26T14:15:24.026Z,2.40
2018-09-26T14:17:52.201Z,1.72
2018-09-26T14:20:37.321Z,1.42
2018-09-26T14:23:05.698Z,1.20
2018-09-26T14:25:34.155Z,1.07
2018-09-26T14:28:02.429Z,1.10
2018-09-26T14:30:30.651Z,0.98
2018-09-26T14:32:58.910Z,1.20
2018-09-26T14:35:27.133Z,1.10
2018-09-26T14:37:55.284Z,1.10
2018-09-26T14:40:23.582Z,1.10
2018-09-26T14:42:51.847Z,1.10
2018-09-26T14:45:20.064Z,1.45
2018-09-26T14:47:48.338Z,1.15
2018-09-26T14:50:16.557Z,1.02
2018-09-26T14:52:44.834Z,1.47
2018-09-26T14:55:13.140Z,1.50
2018-09-26T14:57:41.454Z,1.47
2018-09-26T15:00:09.721Z,1.25
2018-09-26T15:02:38.470Z,1.40
2018-09-26T15:05:06.655Z,1.40
2018-09-26T15:07:34.854Z,1.30
2018-09-26T15:10:03.044Z,1.25
2018-09-26T15:12:31.235Z,1.05
2018-09-26T15:14:59.551Z,1.22
2018-09-26T15:17:27.891Z,0.93
2018-09-26T15:19:56.103Z,1.20
2018-09-26T15:22:24.505Z,1.07
2018-09-26T15:24:52.450Z,1.20
2018-09-26T15:27:20.667Z,1.02
2018-09-26T15:29:48.995Z,1.77
2018-09-26T15:32:17.290Z,1.17
2018-09-26T15:34:45.400Z,1.07
2018-09-26T15:37:13.629Z,1.20
2018-09-26T15:39:41.885Z,1.30
2018-09-26T15:42:10.189Z,1.20
2018-09-26T15:44:38.354Z,1.22
2018-09-26T15:47:06.559Z,1.35
2018-09-26T15:49:34.786Z,1.30
2018-09-26T15:52:03.047Z,1.65
2018-09-26T15:54:31.219Z,1.30
2018-09-26T15:56:59.410Z,0.90
2018-09-26T15:59:27.833Z,1.30
2018-09-26T16:01:56.002Z,0.90
2018-09-26T16:04:26.017Z,1.12
2018-09-26T16:06:54.057Z,1.00
2018-09-26T16:09:22.234Z,1.17
2018-09-26T16:11:50.474Z,0.90
2018-09-26T16:14:18.654Z,1.32
2018-09-26T16:16:46.868Z,1.00
2018-09-26T16:19:15.117Z,1.12
2018-09-26T16:21:43.347Z,0.90
2018-09-26T16:24:11.549Z,0.80
2018-09-26T16:26:40.771Z,1.15
2018-09-26T16:29:09.036Z,1.37
2018-09-26T16:31:37.379Z,1.42
2018-09-26T16:34:05.442Z,1.00
2018-09-26T16:36:33.679Z,1.30
2018-09-26T16:39:01.939Z,1.32
2018-09-26T16:41:29.983Z,1.15
2018-09-26T16:43:58.320Z,1.00
2018-09-26T16:46:26.489Z,0.85
2018-09-26T16:48:54.706Z,1.10
2018-09-26T16:51:22.832Z,0.90
2018-09-26T16:53:51.185Z,0.90
2018-09-26T16:56:19.385Z,0.90
2018-09-26T16:58:47.513Z,1.02
2018-09-26T17:01:15.714Z,0.70
2018-09-26T17:03:43.874Z,1.20
2018-09-26T17:06:12.113Z,1.00
2018-09-26T17:08:40.241Z,0.90
2018-09-26T17:11:08.422Z,0.90
2018-09-26T17:13:36.527Z,1.05
2018-09-26T17:16:04.717Z,0.90
2018-09-26T17:18:32.904Z,0.70
2018-09-26T17:21:01.081Z,0.90
2018-09-26T17:23:29.190Z,0.80
2018-09-26T17:25:57.355Z,0.85
2018-09-26T17:28:25.611Z,1.00
2018-09-26T17:30:53.727Z,0.72
2018-09-26T17:33:21.911Z,1.00
2018-09-26T17:35:50.094Z,0.75
2018-09-26T17:38:18.308Z,0.70
2018-09-26T17:40:46.403Z,1.25
2018-09-26T17:43:14.593Z,0.90
2018-09-26T17:45:42.734Z,0.80
2018-09-26T17:48:10.949Z,0.90
2018-09-26T17:50:39.025Z,1.50
2018-09-26T17:53:07.204Z,0.88
2018-09-26T17:55:35.306Z,0.82
2018-09-26T17:58:03.409Z,1.00
2018-09-26T18:00:31.594Z,1.07
2018-09-26T18:02:59.759Z,0.85
2018-09-26T18:05:27.879Z,1.10
2018-09-26T18:07:56.010Z,1.40
2018-09-26T18:10:24.198Z,1.70
2018-09-26T18:12:52.382Z,2.87
2018-09-26T18:15:20.570Z,3.58
2018-09-26T18:17:48.758Z,3.30
2018-09-26T18:20:16.988Z,3.50
2018-09-26T18:22:45.130Z,3.62
2018-09-26T18:25:13.329Z,2.92
2018-09-26T18:27:41.557Z,2.85
2018-09-26T18:30:09.691Z,2.50
2018-09-26T18:32:37.851Z,3.45
2018-09-26T18:35:05.943Z,3.12
2018-09-26T18:37:34.026Z,3.58
2018-09-26T18:40:02.154Z,4.17
2018-09-26T18:42:30.317Z,4.17
2018-09-26T18:44:58.488Z,3.12
2018-09-26T18:47:26.590Z,3.90
2018-09-26T18:49:54.684Z,3.33
2018-09-26T18:52:22.784Z,3.17
2018-09-26T18:54:50.918Z,2.60
2018-09-26T18:57:19.019Z,2.37
2018-09-26T18:59:47.118Z,2.12
2018-09-26T19:02:15.225Z,2.08
2018-09-26T19:04:43.437Z,2.30
2018-09-26T19:07:11.443Z,1.95
2018-09-26T19:09:39.570Z,1.90
2018-09-26T19:12:07.799Z,1.92
2018-09-26T19:14:35.871Z,2.25
2018-09-26T19:17:03.982Z,2.10
2018-09-26T19:19:32.226Z,1.90
2018-09-26T19:22:00.342Z,1.95
2018-09-26T19:24:28.450Z,2.25
2018-09-26T19:26:56.578Z,1.95
2018-09-26T19:29:24.770Z,2.05
2018-09-26T19:31:52.898Z,2.08
2018-09-26T19:34:21.023Z,1.98
2018-09-26T19:36:49.143Z,2.22
2018-09-26T19:39:17.289Z,1.82
2018-09-26T19:41:45.406Z,1.77
2018-09-26T19:44:13.518Z,1.90
2018-09-26T19:46:41.650Z,1.80
2018-09-26T19:49:09.772Z,2.05
2018-09-26T19:51:38.036Z,3.00
2018-09-26T19:54:06.219Z,2.67
2018-09-26T19:56:34.380Z,2.35
2018-09-26T19:59:02.452Z,2.60
2018-09-26T20:01:30.576Z,2.75
2018-09-26T20:03:58.677Z,7.17
2018-09-26T20:06:26.829Z,8.55
2018-09-26T20:08:54.929Z,10.03
2018-09-26T20:11:23.058Z,5.97
2018-09-26T20:13:51.167Z,4.10
2018-09-26T20:16:19.294Z,4.17
2018-09-26T20:18:47.488Z,5.90
2018-09-26T20:21:15.635Z,4.78
2018-09-26T20:23:43.743Z,4.45
2018-09-26T20:26:11.904Z,3.83
2018-09-26T20:28:40.045Z,3.83
2018-09-26T20:31:08.135Z,3.70
2018-09-26T20:33:36.254Z,2.77
2018-09-26T20:36:04.722Z,3.42
2018-09-26T20:38:32.886Z,2.77
2018-09-26T20:41:01.062Z,3.00
2018-09-26T20:43:29.249Z,2.87
2018-09-26T20:45:57.446Z,2.85
2018-09-26T20:48:25.670Z,2.70
2018-09-26T20:50:53.846Z,2.60
2018-09-26T20:53:21.955Z,2.67
2018-09-26T20:55:50.153Z,1.82
2018-09-26T20:58:18.284Z,2.20
2018-09-26T21:00:46.454Z,4.47
2018-09-26T21:03:14.647Z,4.97
2018-09-26T21:05:43.158Z,3.98
2018-09-26T21:08:11.367Z,4.03
2018-09-26T21:10:39.591Z,4.17
2018-09-26T21:13:07.734Z,4.90
2018-09-26T21:15:35.966Z,5.17
2018-09-26T21:18:04.130Z,4.75
2018-09-26T21:20:32.235Z,3.80
2018-09-26T21:23:00.389Z,3.22
2018-09-26T21:25:28.542Z,3.40
2018-09-26T21:27:56.730Z,3.20
2018-09-26T21:30:24.849Z,2.92
2018-09-26T21:32:53.034Z,3.02
2018-09-26T21:35:21.233Z,2.70
2018-09-26T21:37:49.438Z,2.80
2018-09-26T21:40:17.662Z,2.67
2018-09-26T21:42:45.886Z,2.10
2018-09-26T21:45:14.025Z,2.33
2018-09-26T21:47:42.193Z,2.17
2018-09-26T21:50:10.458Z,2.17
2018-09-26T21:52:38.579Z,2.00
2018-09-26T21:55:06.752Z,2.52
2018-09-26T21:57:34.966Z,2.27
2018-09-26T22:00:03.118Z,2.10
2018-09-26T22:02:31.235Z,2.02
2018-09-26T22:04:59.412Z,1.90
2018-09-26T22:07:27.535Z,2.67
2018-09-26T22:09:55.707Z,2.87
2018-09-26T22:12:23.821Z,2.37
2018-09-26T22:14:52.010Z,2.40
2018-09-26T22:17:20.233Z,2.45
2018-09-26T22:19:48.634Z,2.62
2018-09-26T22:22:16.842Z,2.83
2018-09-26T22:24:45.030Z,2.70
2018-09-26T22:27:13.271Z,2.27
2018-09-26T22:29:41.450Z,2.75
2018-09-26T22:32:09.638Z,2.70
2018-09-26T22:34:37.815Z,3.40
2018-09-26T22:37:06.109Z,4.05
2018-09-26T22:39:34.235Z,4.03
2018-09-26T22:43:05.520Z,4.30
2018-09-26T22:45:33.824Z,3.75
2018-09-26T22:48:02.043Z,3.00
2018-09-26T22:50:30.217Z,3.35
2018-09-26T22:52:58.419Z,3.37
2018-09-26T22:55:26.610Z,3.47
2018-09-26T22:57:54.837Z,3.08
2018-09-26T23:00:23.013Z,2.62
2018-09-26T23:02:51.234Z,2.70
2018-09-26T23:05:19.445Z,2.02
2018-09-26T23:07:47.619Z,2.35
2018-09-26T23:10:15.855Z,2.00
2018-09-26T23:12:44.026Z,1.98
2018-09-26T23:15:12.217Z,1.87
2018-09-26T23:17:40.405Z,2.00
2018-09-26T23:20:08.623Z,2.05
2018-09-26T23:22:36.798Z,2.25
2018-09-26T23:25:05.006Z,2.72
2018-09-26T23:27:33.199Z,2.00
2018-09-26T23:30:01.399Z,2.62
2018-09-26T23:32:29.600Z,2.27
2018-09-26T23:34:57.806Z,1.57
2018-09-26T23:37:26.017Z,2.50
2018-09-26T23:39:54.214Z,2.00
2018-09-26T23:42:22.414Z,1.80
2018-09-26T23:44:50.618Z,2.20
2018-09-26T23:47:18.808Z,2.47
2018-09-26T23:49:47.012Z,2.42
2018-09-26T23:52:15.198Z,2.15
2018-09-26T23:54:43.297Z,2.25
2018-09-26T23:57:11.506Z,2.10
2018-09-26T23:59:39.695Z,1.82
